sensor_id;sensor_type;location;lat;lon;timestamp;pressure;altitude;pressure_sealevel;temperature;humidity
9969;BME280;5025;48.890;9.278;2023-02-28T00:00:20;99545.41;;;-0.28;50.60
9969;BME280;5025;48.890;9.278;2023-02-28T00:02:46;99542.91;;;-0.30;50.46
9969;BME280;5025;48.890;9.278;2023-02-28T00:05:14;99550.47;;;-0.35;50.74
9969;BME280;5025;48.890;9.278;2023-02-28T00:07:40;99539.84;;;-0.35;50.82
9969;BME280;5025;48.890;9.278;2023-02-28T00:10:08;99538.16;;;-0.36;50.87
9969;BME280;5025;48.890;9.278;2023-02-28T00:12:35;99539.28;;;-0.39;51.14
9969;BME280;5025;48.890;9.278;2023-02-28T00:15:02;99543.88;;;-0.41;51.14
9969;BME280;5025;48.890;9.278;2023-02-28T00:17:27;99540.41;;;-0.41;51.07
9969;BME280;5025;48.890;9.278;2023-02-28T00:19:52;99542.22;;;-0.42;51.50
9969;BME280;5025;48.890;9.278;2023-02-28T00:22:21;99540.41;;;-0.41;51.39
9969;BME280;5025;48.890;9.278;2023-02-28T00:24:46;99543.19;;;-0.43;51.39
9969;BME280;5025;48.890;9.278;2023-02-28T00:27:13;99539.00;;;-0.45;51.72
9969;BME280;5025;48.890;9.278;2023-02-28T00:29:38;99538.44;;;-0.49;51.81
9969;BME280;5025;48.890;9.278;2023-02-28T00:32:04;99534.81;;;-0.48;51.81
9969;BME280;5025;48.890;9.278;2023-02-28T00:34:30;99536.63;;;-0.48;52.00
9969;BME280;5025;48.890;9.278;2023-02-28T00:36:55;99535.09;;;-0.51;51.92
9969;BME280;5025;48.890;9.278;2023-02-28T00:39:21;99535.09;;;-0.51;52.23
9969;BME280;5025;48.890;9.278;2023-02-28T00:41:47;99541.66;;;-0.55;52.33
9969;BME280;5025;48.890;9.278;2023-02-28T00:44:12;99541.66;;;-0.55;52.29
9969;BME280;5025;48.890;9.278;2023-02-28T00:46:37;99537.31;;;-0.56;52.39
9969;BME280;5025;48.890;9.278;2023-02-28T00:49:03;99534.66;;;-0.56;52.51
9969;BME280;5025;48.890;9.278;2023-02-28T00:51:28;99538.31;;;-0.57;52.64
9969;BME280;5025;48.890;9.278;2023-02-28T00:53:54;99538.44;;;-0.59;52.71
9969;BME280;5025;48.890;9.278;2023-02-28T00:56:19;99533.97;;;-0.58;52.97
9969;BME280;5025;48.890;9.278;2023-02-28T00:58:44;99533.41;;;-0.62;52.70
9969;BME280;5025;48.890;9.278;2023-02-28T01:01:09;99532.41;;;-0.61;52.87
9969;BME280;5025;48.890;9.278;2023-02-28T01:03:35;99538.59;;;-0.60;53.27
9969;BME280;5025;48.890;9.278;2023-02-28T01:06:00;99530.03;;;-0.64;53.36
9969;BME280;5025;48.890;9.278;2023-02-28T01:08:26;99539.69;;;-0.63;53.54
9969;BME280;5025;48.890;9.278;2023-02-28T01:10:52;99533.69;;;-0.65;53.46
9969;BME280;5025;48.890;9.278;2023-02-28T01:13:18;99532.84;;;-0.65;53.58
9969;BME280;5025;48.890;9.278;2023-02-28T01:15:49;99529.34;;;-0.66;53.54
9969;BME280;5025;48.890;9.278;2023-02-28T01:18:16;99536.63;;;-0.68;53.95
9969;BME280;5025;48.890;9.278;2023-02-28T01:20:41;99533.09;;;-0.68;53.81
9969;BME280;5025;48.890;9.278;2023-02-28T01:23:07;99526.97;;;-0.69;54.14
9969;BME280;5025;48.890;9.278;2023-02-28T01:25:35;99524.47;;;-0.70;54.04
9969;BME280;5025;48.890;9.278;2023-02-28T01:28:01;99529.22;;;-0.74;54.35
9969;BME280;5025;48.890;9.278;2023-02-28T01:30:26;99526.69;;;-0.76;54.25
9969;BME280;5025;48.890;9.278;2023-02-28T01:32:51;99529.50;;;-0.77;54.55
9969;BME280;5025;48.890;9.278;2023-02-28T01:35:18;99536.59;;;-0.78;54.56
9969;BME280;5025;48.890;9.278;2023-02-28T01:37:44;99531.41;;;-0.79;54.74
9969;BME280;5025;48.890;9.278;2023-02-28T01:40:09;99527.94;;;-0.80;54.74
9969;BME280;5025;48.890;9.278;2023-02-28T01:42:35;99522.78;;;-0.81;54.98
9969;BME280;5025;48.890;9.278;2023-02-28T01:45:23;99521.66;;;-0.79;54.72
9969;BME280;5025;48.890;9.278;2023-02-28T01:47:52;99523.75;;;-0.82;55.11
9969;BME280;5025;48.890;9.278;2023-02-28T01:50:23;99522.91;;;-0.83;54.87
9969;BME280;5025;48.890;9.278;2023-02-28T01:52:49;99528.34;;;-0.84;55.18
9969;BME280;5025;48.890;9.278;2023-02-28T01:55:18;99528.34;;;-0.84;55.59
9969;BME280;5025;48.890;9.278;2023-02-28T01:57:50;99523.06;;;-0.84;55.61
9969;BME280;5025;48.890;9.278;2023-02-28T02:00:20;99522.34;;;-0.86;55.41
9969;BME280;5025;48.890;9.278;2023-02-28T02:02:49;99525.00;;;-0.86;55.46
9969;BME280;5025;48.890;9.278;2023-02-28T02:05:19;99517.19;;;-0.88;55.80
9969;BME280;5025;48.890;9.278;2023-02-28T02:07:47;99514.69;;;-0.89;55.72
9969;BME280;5025;48.890;9.278;2023-02-28T02:10:27;99514.69;;;-0.89;56.04
9969;BME280;5025;48.890;9.278;2023-02-28T02:13:16;99510.19;;;-0.89;55.83
9969;BME280;5025;48.890;9.278;2023-02-28T02:35:32;99490.50;;;-0.96;56.68
9969;BME280;5025;48.890;9.278;2023-02-28T02:40:39;99500.97;;;-0.95;56.85
9969;BME280;5025;48.890;9.278;2023-02-28T02:43:13;99497.34;;;-0.94;57.18
9969;BME280;5025;48.890;9.278;2023-02-28T02:45:52;99499.88;;;-0.92;57.07
9969;BME280;5025;48.890;9.278;2023-02-28T02:48:21;99500.69;;;-0.92;57.32
9969;BME280;5025;48.890;9.278;2023-02-28T02:50:54;99497.34;;;-0.94;57.17
9969;BME280;5025;48.890;9.278;2023-02-28T02:53:25;99496.25;;;-0.91;57.38
9969;BME280;5025;48.890;9.278;2023-02-28T02:55:53;99504.34;;;-0.93;57.55
9969;BME280;5025;48.890;9.278;2023-02-28T02:58:23;99490.94;;;-0.91;57.51
9969;BME280;5025;48.890;9.278;2023-02-28T03:00:56;99496.81;;;-0.87;57.62
9969;BME280;5025;48.890;9.278;2023-02-28T03:03:23;99496.53;;;-0.84;57.59
9969;BME280;5025;48.890;9.278;2023-02-28T03:05:58;99489.53;;;-0.85;57.78
9969;BME280;5025;48.890;9.278;2023-02-28T03:08:25;99490.25;;;-0.83;57.75
9969;BME280;5025;48.890;9.278;2023-02-28T03:10:52;99492.91;;;-0.83;58.42
9969;BME280;5025;48.890;9.278;2023-02-28T03:13:42;99493.47;;;-0.80;58.04
9969;BME280;5025;48.890;9.278;2023-02-28T03:21:40;99494.28;;;-0.79;58.27
9969;BME280;5025;48.890;9.278;2023-02-28T03:24:13;99496.81;;;-0.78;58.21
9969;BME280;5025;48.890;9.278;2023-02-28T03:26:46;99488.72;;;-0.76;58.62
9969;BME280;5025;48.890;9.278;2023-02-28T03:29:33;99493.06;;;-0.75;58.67
9969;BME280;5025;48.890;9.278;2023-02-28T03:32:08;99494.59;;;-0.73;58.87
9969;BME280;5025;48.890;9.278;2023-02-28T03:34:43;99491.81;;;-0.71;58.83
9969;BME280;5025;48.890;9.278;2023-02-28T03:37:15;99489.84;;;-0.69;58.74
9969;BME280;5025;48.890;9.278;2023-02-28T03:39:50;99486.22;;;-0.68;58.66
9969;BME280;5025;48.890;9.278;2023-02-28T03:42:21;99484.25;;;-0.66;58.76
9969;BME280;5025;48.890;9.278;2023-02-28T03:47:24;99486.78;;;-0.64;58.91
9969;BME280;5025;48.890;9.278;2023-02-28T03:50:17;99488.31;;;-0.62;59.11
9969;BME280;5025;48.890;9.278;2023-02-28T03:52:58;99489.16;;;-0.61;58.95
9969;BME280;5025;48.890;9.278;2023-02-28T03:55:32;99490.97;;;-0.62;59.00
9969;BME280;5025;48.890;9.278;2023-02-28T03:58:06;99485.53;;;-0.60;59.29
9969;BME280;5025;48.890;9.278;2023-02-28T04:00:45;99490.69;;;-0.59;59.09
9969;BME280;5025;48.890;9.278;2023-02-28T04:03:12;99496.81;;;-0.58;59.34
9969;BME280;5025;48.890;9.278;2023-02-28T04:05:52;99492.78;;;-0.62;59.54
9969;BME280;5025;48.890;9.278;2023-02-28T04:08:18;99490.25;;;-0.64;59.63
9969;BME280;5025;48.890;9.278;2023-02-28T04:10:45;99490.25;;;-0.64;59.83
9969;BME280;5025;48.890;9.278;2023-02-28T04:13:12;99497.94;;;-0.61;59.88
9969;BME280;5025;48.890;9.278;2023-02-28T04:15:37;99498.66;;;-0.59;59.80
9969;BME280;5025;48.890;9.278;2023-02-28T04:18:02;99505.34;;;-0.55;59.50
9969;BME280;5025;48.890;9.278;2023-02-28T04:20:28;99500.88;;;-0.54;59.83
9969;BME280;5025;48.890;9.278;2023-02-28T04:22:53;99503.53;;;-0.54;60.11
9969;BME280;5025;48.890;9.278;2023-02-28T04:25:18;99502.81;;;-0.56;60.04
9969;BME280;5025;48.890;9.278;2023-02-28T04:27:43;99505.19;;;-0.53;60.11
9969;BME280;5025;48.890;9.278;2023-02-28T04:30:10;99506.88;;;-0.52;59.82
9969;BME280;5025;48.890;9.278;2023-02-28T04:32:36;99505.78;;;-0.49;59.88
9969;BME280;5025;48.890;9.278;2023-02-28T04:35:01;99502.13;;;-0.48;59.72
9969;BME280;5025;48.890;9.278;2023-02-28T04:37:27;99503.25;;;-0.51;60.26
9969;BME280;5025;48.890;9.278;2023-02-28T04:39:53;99490.00;;;-0.51;60.04
9969;BME280;5025;48.890;9.278;2023-02-28T04:42:19;99498.38;;;-0.46;59.73
9969;BME280;5025;48.890;9.278;2023-02-28T04:44:44;99501.16;;;-0.47;60.08
9969;BME280;5025;48.890;9.278;2023-02-28T04:47:10;99492.09;;;-0.45;60.06
9969;BME280;5025;48.890;9.278;2023-02-28T04:49:35;99499.78;;;-0.42;60.11
9969;BME280;5025;48.890;9.278;2023-02-28T04:52:00;99501.31;;;-0.49;60.21
9969;BME280;5025;48.890;9.278;2023-02-28T04:54:26;99505.34;;;-0.45;60.34
9969;BME280;5025;48.890;9.278;2023-02-28T04:56:51;99498.09;;;-0.43;60.37
9969;BME280;5025;48.890;9.278;2023-02-28T04:59:17;99499.78;;;-0.42;60.08
9969;BME280;5025;48.890;9.278;2023-02-28T05:01:46;99503.81;;;-0.38;60.03
9969;BME280;5025;48.890;9.278;2023-02-28T05:04:11;99504.66;;;-0.37;60.44
9969;BME280;5025;48.890;9.278;2023-02-28T05:06:36;99507.31;;;-0.37;59.86
9969;BME280;5025;48.890;9.278;2023-02-28T05:09:02;99508.81;;;-0.34;60.11
9969;BME280;5025;48.890;9.278;2023-02-28T05:11:32;99514.13;;;-0.34;60.07
9969;BME280;5025;48.890;9.278;2023-02-28T05:14:11;99510.66;;;-0.35;60.06
9969;BME280;5025;48.890;9.278;2023-02-28T05:16:37;99504.66;;;-0.37;60.20
9969;BME280;5025;48.890;9.278;2023-02-28T05:19:02;99504.66;;;-0.37;60.24
9969;BME280;5025;48.890;9.278;2023-02-28T05:21:37;99503.81;;;-0.38;60.18
9969;BME280;5025;48.890;9.278;2023-02-28T05:24:05;99500.19;;;-0.37;60.33
9969;BME280;5025;48.890;9.278;2023-02-28T05:26:34;99497.38;;;-0.35;60.29
9969;BME280;5025;48.890;9.278;2023-02-28T05:28:59;99503.38;;;-0.33;60.25
9969;BME280;5025;48.890;9.278;2023-02-28T05:31:25;99506.16;;;-0.34;60.81
9969;BME280;5025;48.890;9.278;2023-02-28T05:33:50;99494.31;;;-0.40;60.61
9969;BME280;5025;48.890;9.278;2023-02-28T05:36:16;99505.34;;;-0.35;60.51
9969;BME280;5025;48.890;9.278;2023-02-28T05:38:41;99507.03;;;-0.34;60.39
9969;BME280;5025;48.890;9.278;2023-02-28T05:41:11;99499.91;;;-0.33;60.49
9969;BME280;5025;48.890;9.278;2023-02-28T05:43:37;99506.03;;;-0.33;60.38
9969;BME280;5025;48.890;9.278;2023-02-28T05:46:07;99509.69;;;-0.34;60.34
9969;BME280;5025;48.890;9.278;2023-02-28T05:48:34;99510.66;;;-0.35;60.48
9969;BME280;5025;48.890;9.278;2023-02-28T05:50:59;99508.81;;;-0.34;60.42
9969;BME280;5025;48.890;9.278;2023-02-28T05:53:25;99507.72;;;-0.32;60.53
9969;BME280;5025;48.890;9.278;2023-02-28T05:55:51;99514.13;;;-0.34;60.71
9969;BME280;5025;48.890;9.278;2023-02-28T05:58:16;99514.28;;;-0.36;60.61
9969;BME280;5025;48.890;9.278;2023-02-28T06:00:42;99512.19;;;-0.32;60.79
9969;BME280;5025;48.890;9.278;2023-02-28T06:03:07;99511.06;;;-0.30;60.70
9969;BME280;5025;48.890;9.278;2023-02-28T06:05:32;99517.22;;;-0.29;60.76
9969;BME280;5025;48.890;9.278;2023-02-28T06:07:58;99520.69;;;-0.29;60.49
9969;BME280;5025;48.890;9.278;2023-02-28T06:10:23;99523.34;;;-0.29;60.01
9969;BME280;5025;48.890;9.278;2023-02-28T06:12:48;99518.72;;;-0.27;60.53
9969;BME280;5025;48.890;9.278;2023-02-28T06:15:15;99520.69;;;-0.29;60.29
9969;BME280;5025;48.890;9.278;2023-02-28T06:17:42;99523.34;;;-0.29;60.43
9969;BME280;5025;48.890;9.278;2023-02-28T06:20:08;99530.34;;;-0.28;60.67
9969;BME280;5025;48.890;9.278;2023-02-28T06:22:35;99524.03;;;-0.27;60.44
9969;BME280;5025;48.890;9.278;2023-02-28T06:25:01;99523.34;;;-0.29;60.67
9969;BME280;5025;48.890;9.278;2023-02-28T06:27:26;99535.53;;;-0.26;60.65
9969;BME280;5025;48.890;9.278;2023-02-28T06:29:54;99531.03;;;-0.26;60.60
9969;BME280;5025;48.890;9.278;2023-02-28T06:32:21;99532.88;;;-0.26;60.53
9969;BME280;5025;48.890;9.278;2023-02-28T06:34:46;99530.06;;;-0.25;60.67
9969;BME280;5025;48.890;9.278;2023-02-28T06:37:11;99537.19;;;-0.25;60.45
9969;BME280;5025;48.890;9.278;2023-02-28T06:39:36;99538.03;;;-0.25;60.30
9969;BME280;5025;48.890;9.278;2023-02-28T06:42:02;99537.19;;;-0.25;60.45
9969;BME280;5025;48.890;9.278;2023-02-28T06:44:28;99540.69;;;-0.25;60.70
9969;BME280;5025;48.890;9.278;2023-02-28T06:47:00;99545.13;;;-0.25;60.75
9969;BME280;5025;48.890;9.278;2023-02-28T06:49:26;99549.75;;;-0.27;60.80
9969;BME280;5025;48.890;9.278;2023-02-28T06:51:52;99549.06;;;-0.29;60.58
9969;BME280;5025;48.890;9.278;2023-02-28T06:54:17;99547.94;;;-0.27;60.69
9969;BME280;5025;48.890;9.278;2023-02-28T06:56:42;99552.13;;;-0.24;60.72
9969;BME280;5025;48.890;9.278;2023-02-28T06:59:08;99558.13;;;-0.22;60.67
9969;BME280;5025;48.890;9.278;2023-02-28T07:01:33;99556.06;;;-0.19;60.56
9969;BME280;5025;48.890;9.278;2023-02-28T07:03:59;99563.03;;;-0.17;60.47
9969;BME280;5025;48.890;9.278;2023-02-28T07:06:25;99558.44;;;-0.15;60.60
9969;BME280;5025;48.890;9.278;2023-02-28T07:08:52;99556.06;;;-0.19;60.74
9969;BME280;5025;48.890;9.278;2023-02-28T07:11:19;99564.69;;;-0.16;60.82
9969;BME280;5025;48.890;9.278;2023-02-28T07:13:44;99568.75;;;-0.12;60.54
9969;BME280;5025;48.890;9.278;2023-02-28T07:16:11;99557.28;;;-0.13;60.70
9969;BME280;5025;48.890;9.278;2023-02-28T07:18:37;99562.75;;;-0.14;60.69
9969;BME280;5025;48.890;9.278;2023-02-28T07:21:04;99564.97;;;-0.10;60.59
9969;BME280;5025;48.890;9.278;2023-02-28T07:23:30;99566.38;;;-0.06;60.57
9969;BME280;5025;48.890;9.278;2023-02-28T07:25:55;99571.41;;;-0.03;60.60
9969;BME280;5025;48.890;9.278;2023-02-28T07:28:21;99566.91;;;-0.02;60.51
9969;BME280;5025;48.890;9.278;2023-02-28T07:30:46;99565.53;;;-0.06;60.56
9969;BME280;5025;48.890;9.278;2023-02-28T07:33:13;99572.38;;;-0.04;60.37
9969;BME280;5025;48.890;9.278;2023-02-28T07:35:38;99574.88;;;-0.02;60.49
9969;BME280;5025;48.890;9.278;2023-02-28T07:38:03;99573.22;;;-0.03;60.54
9969;BME280;5025;48.890;9.278;2023-02-28T07:40:30;99574.19;;;-0.04;60.51
9969;BME280;5025;48.890;9.278;2023-02-28T07:42:55;99570.44;;;-0.02;60.55
9969;BME280;5025;48.890;9.278;2023-02-28T07:45:21;99574.47;;;0.03;60.50
9969;BME280;5025;48.890;9.278;2023-02-28T07:47:46;99576.97;;;0.04;60.37
9969;BME280;5025;48.890;9.278;2023-02-28T07:50:15;99576.00;;;0.05;60.46
9969;BME280;5025;48.890;9.278;2023-02-28T07:52:41;99583.69;;;0.08;60.49
9969;BME280;5025;48.890;9.278;2023-02-28T07:55:08;99578.38;;;0.08;60.38
9969;BME280;5025;48.890;9.278;2023-02-28T07:57:34;99582.41;;;0.12;60.41
9969;BME280;5025;48.890;9.278;2023-02-28T07:59:59;99581.56;;;0.12;60.49
9969;BME280;5025;48.890;9.278;2023-02-28T08:02:25;99581.44;;;0.13;60.53
9969;BME280;5025;48.890;9.278;2023-02-28T08:04:50;99578.63;;;0.15;60.53
9969;BME280;5025;48.890;9.278;2023-02-28T08:07:17;99585.63;;;0.16;60.22
9969;BME280;5025;48.890;9.278;2023-02-28T08:09:43;99585.63;;;0.16;60.37
9969;BME280;5025;48.890;9.278;2023-02-28T08:12:09;99589.81;;;0.18;60.30
9969;BME280;5025;48.890;9.278;2023-02-28T08:14:36;99578.91;;;0.22;60.38
9969;BME280;5025;48.890;9.278;2023-02-28T08:17:01;99576.25;;;0.22;60.15
9969;BME280;5025;48.890;9.278;2023-02-28T08:19:27;99584.06;;;0.23;60.44
9969;BME280;5025;48.890;9.278;2023-02-28T08:21:53;99582.00;;;0.27;60.29
9969;BME280;5025;48.890;9.278;2023-02-28T08:24:18;99588.97;;;0.28;60.31
9969;BME280;5025;48.890;9.278;2023-02-28T08:26:43;99587.97;;;0.29;60.18
9969;BME280;5025;48.890;9.278;2023-02-28T08:29:09;99587.84;;;0.30;59.92
9969;BME280;5025;48.890;9.278;2023-02-28T08:31:34;99590.66;;;0.29;60.18
9969;BME280;5025;48.890;9.278;2023-02-28T08:34:05;99592.47;;;0.28;60.46
9969;BME280;5025;48.890;9.278;2023-02-28T08:36:30;99599.88;;;0.34;60.19
9969;BME280;5025;48.890;9.278;2023-02-28T08:38:56;99592.59;;;0.37;60.18
9969;BME280;5025;48.890;9.278;2023-02-28T08:41:22;99596.78;;;0.39;60.17
9969;BME280;5025;48.890;9.278;2023-02-28T08:43:47;99593.69;;;0.44;60.29
9969;BME280;5025;48.890;9.278;2023-02-28T08:46:13;99596.06;;;0.47;60.26
9969;BME280;5025;48.890;9.278;2023-02-28T08:48:39;99591.72;;;0.46;60.16
9969;BME280;5025;48.890;9.278;2023-02-28T08:51:09;99594.78;;;0.51;60.17
9969;BME280;5025;48.890;9.278;2023-02-28T08:53:39;99590.31;;;0.51;59.99
9969;BME280;5025;48.890;9.278;2023-02-28T08:56:07;99593.38;;;0.57;60.07
9969;BME280;5025;48.890;9.278;2023-02-28T08:58:33;99603.88;;;0.58;59.77
9969;BME280;5025;48.890;9.278;2023-02-28T09:00:59;99598.94;;;0.63;59.98
9969;BME280;5025;48.890;9.278;2023-02-28T09:03:24;99595.03;;;0.67;59.90
9969;BME280;5025;48.890;9.278;2023-02-28T09:05:56;99596.13;;;0.75;59.80
9969;BME280;5025;48.890;9.278;2023-02-28T09:08:23;99597.78;;;0.76;59.77
9969;BME280;5025;48.890;9.278;2023-02-28T09:10:49;99595.69;;;0.79;59.67
9969;BME280;5025;48.890;9.278;2023-02-28T09:13:14;99592.75;;;0.82;59.63
9969;BME280;5025;48.890;9.278;2023-02-28T09:15:39;99592.44;;;0.85;59.75
9969;BME280;5025;48.890;9.278;2023-02-28T09:18:05;99593.13;;;0.87;59.40
9969;BME280;5025;48.890;9.278;2023-02-28T09:20:30;99594.53;;;0.92;59.45
9969;BME280;5025;48.890;9.278;2023-02-28T09:22:55;99593.38;;;0.94;59.66
9969;BME280;5025;48.890;9.278;2023-02-28T09:25:20;99596.59;;;0.98;59.45
9969;BME280;5025;48.890;9.278;2023-02-28T09:27:46;99596.97;;;1.03;59.58
9969;BME280;5025;48.890;9.278;2023-02-28T09:30:12;99602.16;;;1.04;59.15
9969;BME280;5025;48.890;9.278;2023-02-28T09:32:37;99593.72;;;1.09;59.13
9969;BME280;5025;48.890;9.278;2023-02-28T09:35:04;99599.06;;;1.09;58.91
9969;BME280;5025;48.890;9.278;2023-02-28T09:37:29;99597.38;;;1.08;59.05
9969;BME280;5025;48.890;9.278;2023-02-28T09:39:56;99605.47;;;1.16;58.87
9969;BME280;5025;48.890;9.278;2023-02-28T09:42:25;99610.50;;;1.19;58.80
9969;BME280;5025;48.890;9.278;2023-02-28T09:44:55;99605.72;;;1.23;58.56
9969;BME280;5025;48.890;9.278;2023-02-28T09:47:31;99606.53;;;1.23;58.26
9969;BME280;5025;48.890;9.278;2023-02-28T09:50:06;99606.94;;;1.29;58.26
9969;BME280;5025;48.890;9.278;2023-02-28T09:52:33;99602.47;;;1.29;58.07
9969;BME280;5025;48.890;9.278;2023-02-28T09:58:04;99608.09;;;1.44;57.94
9969;BME280;5025;48.890;9.278;2023-02-28T10:08:25;99609.66;;;1.65;56.99
9969;BME280;5025;48.890;9.278;2023-02-28T10:10:59;99610.41;;;1.75;56.70
9969;BME280;5025;48.890;9.278;2023-02-28T10:13:41;99611.47;;;1.82;56.57
9969;BME280;5025;48.890;9.278;2023-02-28T10:16:16;99603.88;;;1.87;56.43
9969;BME280;5025;48.890;9.278;2023-02-28T10:18:51;99606.06;;;1.92;56.10
9969;BME280;5025;48.890;9.278;2023-02-28T10:21:24;99610.28;;;1.94;56.28
9969;BME280;5025;48.890;9.278;2023-02-28T10:23:53;99608.13;;;1.98;55.81
9969;BME280;5025;48.890;9.278;2023-02-28T10:26:21;99613.69;;;2.05;55.56
9969;BME280;5025;48.890;9.278;2023-02-28T10:28:46;99616.56;;;2.11;55.51
9969;BME280;5025;48.890;9.278;2023-02-28T10:31:15;99615.13;;;2.17;54.89
9969;BME280;5025;48.890;9.278;2023-02-28T10:33:42;99620.47;;;2.17;54.77
9969;BME280;5025;48.890;9.278;2023-02-28T10:36:13;99617.34;;;2.22;54.81
9969;BME280;5025;48.890;9.278;2023-02-28T10:38:39;99615.88;;;2.27;54.74
9969;BME280;5025;48.890;9.278;2023-02-28T10:43:35;99615.63;;;2.39;54.44
9969;BME280;5025;48.890;9.278;2023-02-28T10:46:02;99623.69;;;2.47;54.34
9969;BME280;5025;48.890;9.278;2023-02-28T10:51:03;99604.59;;;2.60;54.10
9969;BME280;5025;48.890;9.278;2023-02-28T10:53:35;99606.00;;;2.72;53.93
9969;BME280;5025;48.890;9.278;2023-02-28T11:03:57;99602.00;;;3.45;52.83
9969;BME280;5025;48.890;9.278;2023-02-28T11:06:28;99598.16;;;3.48;52.53
9969;BME280;5025;48.890;9.278;2023-02-28T11:08:59;99598.22;;;3.64;52.33
9969;BME280;5025;48.890;9.278;2023-02-28T11:11:27;99590.22;;;3.72;51.99
9969;BME280;5025;48.890;9.278;2023-02-28T11:13:56;99589.88;;;3.84;51.64
9969;BME280;5025;48.890;9.278;2023-02-28T11:16:31;99587.41;;;3.99;51.08
9969;BME280;5025;48.890;9.278;2023-02-28T11:18:57;99581.53;;;4.11;50.99
9969;BME280;5025;48.890;9.278;2023-02-28T11:21:27;99579.03;;;4.26;50.74
9969;BME280;5025;48.890;9.278;2023-02-28T11:24:04;99571.84;;;4.35;50.39
9969;BME280;5025;48.890;9.278;2023-02-28T11:26:47;99568.31;;;4.51;49.87
9969;BME280;5025;48.890;9.278;2023-02-28T11:29:25;99565.78;;;4.58;49.53
9969;BME280;5025;48.890;9.278;2023-02-28T11:32:20;99564.09;;;4.65;48.78
9969;BME280;5025;48.890;9.278;2023-02-28T11:35:01;99562.22;;;4.74;48.52
9969;BME280;5025;48.890;9.278;2023-02-28T11:37:28;99561.38;;;4.81;48.26
9969;BME280;5025;48.890;9.278;2023-02-28T11:39:54;99566.03;;;4.96;47.82
9969;BME280;5025;48.890;9.278;2023-02-28T11:45:39;99565.03;;;5.28;47.24
9969;BME280;5025;48.890;9.278;2023-02-28T11:48:18;99556.97;;;5.36;46.49
9969;BME280;5025;48.890;9.278;2023-02-28T11:50:54;99565.06;;;5.51;46.60
9969;BME280;5025;48.890;9.278;2023-02-28T11:56:18;99556.66;;;5.54;45.76
9969;BME280;5025;48.890;9.278;2023-02-28T11:59:04;99552.03;;;5.48;45.23
9969;BME280;5025;48.890;9.278;2023-02-28T12:05:34;99555.03;;;5.53;44.97
9969;BME280;5025;48.890;9.278;2023-02-28T12:07:43;99559.97;;;5.65;44.86
9969;BME280;5025;48.890;9.278;2023-02-28T12:10:27;99560.06;;;5.71;44.48
9969;BME280;5025;48.890;9.278;2023-02-28T12:13:15;99554.31;;;5.83;44.58
9969;BME280;5025;48.890;9.278;2023-02-28T12:21:11;99541.47;;;6.01;43.96
9969;BME280;5025;48.890;9.278;2023-02-28T12:26:34;99537.00;;;6.17;43.52
9969;BME280;5025;48.890;9.278;2023-02-28T12:29:10;99542.81;;;6.20;43.36
9969;BME280;5025;48.890;9.278;2023-02-28T12:31:46;99533.75;;;6.36;43.36
9969;BME280;5025;48.890;9.278;2023-02-28T12:34:19;99531.75;;;6.53;43.25
9969;BME280;5025;48.890;9.278;2023-02-28T12:36:49;99533.22;;;6.71;43.09
9969;BME280;5025;48.890;9.278;2023-02-28T12:39:26;99527.59;;;6.80;42.52
9969;BME280;5025;48.890;9.278;2023-02-28T12:41:59;99528.44;;;6.81;42.42
9969;BME280;5025;48.890;9.278;2023-02-28T12:44:35;99523.50;;;6.85;42.17
9969;BME280;5025;48.890;9.278;2023-02-28T12:47:04;99520.25;;;6.89;42.36
9969;BME280;5025;48.890;9.278;2023-02-28T12:49:34;99521.00;;;6.98;42.09
9969;BME280;5025;48.890;9.278;2023-02-28T12:52:03;99517.63;;;7.11;42.04
9969;BME280;5025;48.890;9.278;2023-02-28T12:54:40;99507.97;;;7.31;42.09
9969;BME280;5025;48.890;9.278;2023-02-28T12:57:36;99511.50;;;7.53;41.98
9969;BME280;5025;48.890;9.278;2023-02-28T13:00:10;99504.09;;;7.77;41.47
9969;BME280;5025;48.890;9.278;2023-02-28T13:03:08;99499.50;;;7.99;41.47
9969;BME280;5025;48.890;9.278;2023-02-28T13:06:02;99498.22;;;8.17;41.09
9969;BME280;5025;48.890;9.278;2023-02-28T13:11:24;99500.28;;;8.43;40.58
9969;BME280;5025;48.890;9.278;2023-02-28T13:13:57;99492.28;;;8.56;40.25
9969;BME280;5025;48.890;9.278;2023-02-28T13:16:23;99491.56;;;8.69;40.19
9969;BME280;5025;48.890;9.278;2023-02-28T13:18:49;99489.91;;;8.75;39.66
9969;BME280;5025;48.890;9.278;2023-02-28T13:21:41;99487.63;;;8.72;39.14
9969;BME280;5025;48.890;9.278;2023-02-28T13:24:08;99484.47;;;8.61;38.87
9969;BME280;5025;48.890;9.278;2023-02-28T13:34:39;99483.28;;;9.26;38.32
9969;BME280;5025;48.890;9.278;2023-02-28T13:39:57;99481.88;;;9.50;38.17
9969;BME280;5025;48.890;9.278;2023-02-28T13:47:39;99475.50;;;9.84;37.16
9969;BME280;5025;48.890;9.278;2023-02-28T13:50:31;99482.97;;;10.02;37.11
9969;BME280;5025;48.890;9.278;2023-02-28T14:01:34;99475.94;;;10.35;36.04
9969;BME280;5025;48.890;9.278;2023-02-28T14:06:55;99477.94;;;10.66;35.67
9969;BME280;5025;48.890;9.278;2023-02-28T14:09:45;99481.84;;;10.77;35.23
9969;BME280;5025;48.890;9.278;2023-02-28T14:20:58;99486.88;;;11.12;34.39
9969;BME280;5025;48.890;9.278;2023-02-28T14:26:18;99483.44;;;11.37;34.03
9969;BME280;5025;48.890;9.278;2023-02-28T14:29:05;99477.38;;;11.41;34.07
9969;BME280;5025;48.890;9.278;2023-02-28T14:31:44;99481.47;;;11.51;33.98
9969;BME280;5025;48.890;9.278;2023-02-28T14:36:39;99474.25;;;11.76;33.41
9969;BME280;5025;48.890;9.278;2023-02-28T14:39:10;99477.75;;;11.83;33.23
9969;BME280;5025;48.890;9.278;2023-02-28T14:41:38;99477.66;;;11.97;33.39
9969;BME280;5025;48.890;9.278;2023-02-28T14:46:41;99482.81;;;12.24;32.45
9969;BME280;5025;48.890;9.278;2023-02-28T14:49:24;99482.38;;;12.27;32.63
9969;BME280;5025;48.890;9.278;2023-02-28T14:52:23;99486.97;;;12.26;32.61
9969;BME280;5025;48.890;9.278;2023-02-28T14:55:00;99485.31;;;12.25;32.70
9969;BME280;5025;48.890;9.278;2023-02-28T14:57:31;99488.97;;;12.12;32.60
9969;BME280;5025;48.890;9.278;2023-02-28T15:02:46;99478.22;;;12.06;32.33
9969;BME280;5025;48.890;9.278;2023-02-28T15:07:42;99479.91;;;12.00;32.30
9969;BME280;5025;48.890;9.278;2023-02-28T15:10:23;99488.47;;;11.97;32.13
9969;BME280;5025;48.890;9.278;2023-02-28T15:12:56;99490.81;;;11.93;32.28
9969;BME280;5025;48.890;9.278;2023-02-28T15:15:42;99494.25;;;12.00;32.21
9969;BME280;5025;48.890;9.278;2023-02-28T15:20:51;99499.38;;;11.83;32.49
9969;BME280;5025;48.890;9.278;2023-02-28T15:23:19;99491.84;;;11.60;32.58
9969;BME280;5025;48.890;9.278;2023-02-28T15:25:45;99495.41;;;11.54;32.45
9969;BME280;5025;48.890;9.278;2023-02-28T15:28:15;99497.94;;;11.49;32.52
9969;BME280;5025;48.890;9.278;2023-02-28T15:30:57;99494.22;;;11.43;32.60
9969;BME280;5025;48.890;9.278;2023-02-28T15:33:28;99494.69;;;11.34;32.91
9969;BME280;5025;48.890;9.278;2023-02-28T15:36:06;99496.41;;;11.21;33.05
9969;BME280;5025;48.890;9.278;2023-02-28T15:38:36;99495.00;;;11.12;33.16
9969;BME280;5025;48.890;9.278;2023-02-28T15:41:01;99495.50;;;10.96;33.43
9969;BME280;5025;48.890;9.278;2023-02-28T15:43:40;99499.94;;;10.70;33.76